createdAt,value
2019-04-30T00:01:42.924Z,9.81
2019-04-30T00:04:15.788Z,9.77
2019-04-30T00:06:45.453Z,9.84
2019-04-30T00:09:18.925Z,9.85
2019-04-30T00:11:50.740Z,9.87
2019-04-30T00:14:19.851Z,9.82
2019-04-30T00:16:49.297Z,9.80
2019-04-30T00:19:19.801Z,9.82
2019-04-30T00:21:57.064Z,9.75
2019-04-30T00:24:21.102Z,9.78
2019-04-30T00:26:52.533Z,9.79
2019-04-30T00:29:26.832Z,9.78
2019-04-30T00:31:59.327Z,9.77
2019-04-30T00:34:24.980Z,9.76
2019-04-30T00:36:55.961Z,9.77
2019-04-30T00:39:27.291Z,9.80
2019-04-30T00:41:56.863Z,9.77
2019-04-30T00:44:28.342Z,9.85
2019-04-30T00:47:00.616Z,9.84
2019-04-30T00:49:28.927Z,9.78
2019-04-30T00:51:58.614Z,9.77
2019-04-30T00:54:30.872Z,9.81
2019-04-30T00:57:04.507Z,9.80
2019-04-30T00:59:31.096Z,9.80
2019-04-30T01:02:10.896Z,9.80
2019-04-30T01:04:41.972Z,9.78
2019-04-30T01:07:11.794Z,9.86
2019-04-30T01:09:46.435Z,9.88
2019-04-30T01:12:17.403Z,9.87
2019-04-30T01:14:44.175Z,9.82
2019-04-30T01:17:13.915Z,9.80
2019-04-30T01:19:46.098Z,9.80
2019-04-30T01:22:18.838Z,9.80
2019-04-30T01:24:46.315Z,9.79
2019-04-30T01:27:15.760Z,9.75
2019-04-30T01:29:45.193Z,9.75
2019-04-30T01:32:17.470Z,9.73
2019-04-30T01:34:49.942Z,9.71
2019-04-30T01:37:20.337Z,9.74
2019-04-30T01:39:49.240Z,9.73
2019-04-30T01:42:19.089Z,9.69
2019-04-30T01:44:53.617Z,9.65
2019-04-30T01:47:21.420Z,9.65
2019-04-30T01:49:55.722Z,9.65
2019-04-30T01:52:22.866Z,9.63
2019-04-30T01:54:52.556Z,9.65
2019-04-30T01:57:23.635Z,9.66
2019-04-30T02:00:10.577Z,9.68
2019-04-30T02:02:41.669Z,9.70
2019-04-30T02:05:11.175Z,9.69
2019-04-30T02:07:40.622Z,9.65
2019-04-30T02:10:10.909Z,9.68
2019-04-30T02:12:40.356Z,9.70
2019-04-30T02:15:10.069Z,9.72
2019-04-30T02:17:39.521Z,9.70
2019-04-30T02:20:10.301Z,9.68
2019-04-30T02:22:39.749Z,9.77
2019-04-30T02:25:09.698Z,9.80
2019-04-30T02:27:39.234Z,9.72
2019-04-30T02:30:11.411Z,9.73
2019-04-30T02:32:41.072Z,9.75
2019-04-30T02:35:10.944Z,9.76
2019-04-30T02:37:43.561Z,9.75
2019-04-30T02:40:13.249Z,9.71
2019-04-30T02:42:43.035Z,9.75
2019-04-30T02:45:12.638Z,9.77
2019-04-30T02:47:42.322Z,9.84
2019-04-30T02:50:18.428Z,9.79
2019-04-30T02:52:44.256Z,9.79
2019-04-30T02:55:19.480Z,9.79
2019-04-30T02:57:49.859Z,9.78
2019-04-30T03:00:20.697Z,9.75
2019-04-30T03:02:50.880Z,9.72
2019-04-30T03:05:20.510Z,9.76
2019-04-30T03:07:53.330Z,9.74
2019-04-30T03:10:21.509Z,9.73
2019-04-30T03:12:51.227Z,9.74
2019-04-30T03:15:22.940Z,9.73
2019-04-30T03:18:02.165Z,9.75
2019-04-30T03:20:40.304Z,9.74
2019-04-30T03:23:10.095Z,9.75
2019-04-30T03:25:40.576Z,9.81
2019-04-30T03:28:10.085Z,9.72
2019-04-30T03:30:42.084Z,9.73
2019-04-30T03:33:12.890Z,9.79
2019-04-30T03:35:48.044Z,9.79
2019-04-30T03:38:13.982Z,9.83
2019-04-30T03:40:43.714Z,9.80
2019-04-30T03:43:13.523Z,9.78
2019-04-30T03:45:43.200Z,9.78
2019-04-30T03:48:12.705Z,9.79
2019-04-30T03:50:53.284Z,9.79
2019-04-30T03:53:13.544Z,9.85
2019-04-30T03:55:42.982Z,9.87
2019-04-30T03:58:12.420Z,9.85
2019-04-30T04:01:00.406Z,9.86
2019-04-30T04:03:31.614Z,9.86
2019-04-30T04:06:21.244Z,9.84
2019-04-30T04:08:54.783Z,9.85
2019-04-30T04:11:26.206Z,9.81
2019-04-30T04:13:55.914Z,9.82
2019-04-30T04:16:25.365Z,9.84
2019-04-30T04:18:54.805Z,9.90
2019-04-30T04:21:24.528Z,9.92
2019-04-30T04:23:53.969Z,9.89
2019-04-30T04:26:23.662Z,9.90
2019-04-30T04:28:53.443Z,9.90
2019-04-30T04:31:23.158Z,9.91
2019-04-30T04:33:52.912Z,9.92
2019-04-30T04:36:22.309Z,9.96
2019-04-30T04:38:51.751Z,10.00
2019-04-30T04:41:21.485Z,10.03
2019-04-30T04:43:50.925Z,9.98
2019-04-30T04:46:20.691Z,10.01
2019-04-30T04:48:50.289Z,9.98
2019-04-30T04:51:36.566Z,10.02
2019-04-30T04:53:51.178Z,10.05
2019-04-30T04:56:20.626Z,10.02
2019-04-30T04:58:50.364Z,10.03
2019-04-30T05:01:20.607Z,10.03
2019-04-30T05:03:50.081Z,10.06
2019-04-30T05:06:21.748Z,10.06
2019-04-30T05:08:51.047Z,10.04
2019-04-30T05:11:20.497Z,10.09
2019-04-30T05:13:49.938Z,10.08
2019-04-30T05:16:19.400Z,10.05
2019-04-30T05:18:48.939Z,10.07
2019-04-30T05:21:18.916Z,10.09
2019-04-30T05:23:49.261Z,10.10
2019-04-30T05:26:19.282Z,10.12
2019-04-30T05:28:52.467Z,10.13
2019-04-30T05:31:21.094Z,10.12
2019-04-30T05:33:50.912Z,10.08
2019-04-30T05:36:20.360Z,10.21
2019-04-30T05:38:50.115Z,10.14
2019-04-30T05:41:19.818Z,10.15
2019-04-30T05:43:49.256Z,10.10
2019-04-30T05:46:19.638Z,10.10
2019-04-30T05:48:49.596Z,10.13
2019-04-30T05:51:21.137Z,10.21
2019-04-30T05:53:50.532Z,10.20
2019-04-30T05:56:19.989Z,10.22
2019-04-30T05:58:49.740Z,10.24
2019-04-30T06:01:19.767Z,10.26
2019-04-30T06:03:49.211Z,10.21
2019-04-30T06:06:19.388Z,10.21
2019-04-30T06:08:53.079Z,10.29
2019-04-30T06:11:32.629Z,10.32
2019-04-30T06:14:18.697Z,10.33
2019-04-30T06:16:51.757Z,10.37
2019-04-30T06:19:21.608Z,10.37
2019-04-30T06:21:51.315Z,10.45
2019-04-30T06:24:21.040Z,10.46
2019-04-30T06:26:50.491Z,10.42
2019-04-30T06:29:20.012Z,10.46
2019-04-30T06:31:49.747Z,10.48
2019-04-30T06:34:19.814Z,10.51
2019-04-30T06:36:53.376Z,10.59
2019-04-30T06:39:21.389Z,10.56
2019-04-30T06:41:51.821Z,10.57
2019-04-30T06:44:21.278Z,10.55
2019-04-30T06:46:51.240Z,10.56
2019-04-30T06:49:21.150Z,10.61
2019-04-30T06:51:50.901Z,10.64
2019-04-30T06:54:20.598Z,10.65
2019-04-30T06:56:50.317Z,10.63
2019-04-30T06:59:20.337Z,10.63
2019-04-30T07:01:49.878Z,10.71
2019-04-30T07:04:19.508Z,10.70
2019-04-30T07:06:50.609Z,10.70
2019-04-30T07:09:34.808Z,10.66
2019-04-30T07:12:09.741Z,10.67
2019-04-30T07:14:41.771Z,10.81
2019-04-30T07:17:10.325Z,10.86
2019-04-30T07:19:53.190Z,10.82
2019-04-30T07:22:11.284Z,10.73
2019-04-30T07:24:40.712Z,10.78
2019-04-30T07:27:10.168Z,10.84
2019-04-30T07:29:39.611Z,10.84
2019-04-30T07:32:09.540Z,10.85
2019-04-30T07:34:39.609Z,10.74
2019-04-30T07:37:16.413Z,10.82
2019-04-30T07:39:40.556Z,10.81
2019-04-30T07:42:10.019Z,10.74
2019-04-30T07:44:39.617Z,10.78
2019-04-30T07:47:09.738Z,10.86
2019-04-30T07:49:51.567Z,10.81
2019-04-30T07:52:11.761Z,10.84
2019-04-30T07:54:42.092Z,10.97
2019-04-30T07:57:11.581Z,10.90
2019-04-30T07:59:41.019Z,10.80
2019-04-30T08:02:14.475Z,10.82
2019-04-30T08:04:55.291Z,10.82
2019-04-30T08:07:24.963Z,10.75
2019-04-30T08:09:54.714Z,10.91
2019-04-30T08:12:30.023Z,10.78
2019-04-30T08:14:55.666Z,10.71
2019-04-30T08:17:25.358Z,10.67
2019-04-30T08:19:54.898Z,10.69
2019-04-30T08:22:24.577Z,10.73
2019-04-30T08:24:54.469Z,10.82
2019-04-30T08:27:23.885Z,10.86
2019-04-30T08:29:53.388Z,10.84
2019-04-30T08:32:22.854Z,10.81
2019-04-30T08:34:52.590Z,10.73
2019-04-30T08:37:22.693Z,10.78
2019-04-30T08:39:52.224Z,10.83
2019-04-30T08:42:30.804Z,10.82
2019-04-30T08:44:53.271Z,10.77
2019-04-30T08:47:22.716Z,10.74
2019-04-30T08:49:52.180Z,10.75
2019-04-30T08:52:21.629Z,10.80
2019-04-30T08:54:51.139Z,10.82
2019-04-30T08:57:21.245Z,10.78
2019-04-30T08:59:53.190Z,10.89
2019-04-30T09:02:22.974Z,10.80
2019-04-30T09:04:54.073Z,10.75
2019-04-30T09:07:23.518Z,10.76
2019-04-30T09:09:53.226Z,10.72
2019-04-30T09:12:22.673Z,10.83
2019-04-30T09:14:52.129Z,10.87
2019-04-30T09:17:21.841Z,10.89
2019-04-30T09:19:52.071Z,10.94
2019-04-30T09:22:21.776Z,11.02
2019-04-30T09:24:51.226Z,11.10
2019-04-30T09:27:20.677Z,11.13
2019-04-30T09:29:50.129Z,11.16
2019-04-30T09:32:19.815Z,11.15
2019-04-30T09:34:49.808Z,11.24
2019-04-30T09:37:19.620Z,11.14
2019-04-30T09:39:49.682Z,11.13
2019-04-30T09:42:19.716Z,11.23
2019-04-30T09:44:49.483Z,11.26
2019-04-30T09:47:20.043Z,11.30
2019-04-30T09:49:49.657Z,11.37
2019-04-30T09:52:19.854Z,11.54
2019-04-30T09:54:50.777Z,11.53
2019-04-30T09:57:20.663Z,11.45
2019-04-30T09:59:50.109Z,11.56
2019-04-30T10:02:19.552Z,11.44
2019-04-30T10:04:49.386Z,11.52
2019-04-30T10:07:19.601Z,11.50
2019-04-30T10:09:50.967Z,11.62
2019-04-30T10:12:20.495Z,11.56
2019-04-30T10:14:49.952Z,11.51
2019-04-30T10:17:23.989Z,11.52
2019-04-30T10:19:53.434Z,11.49
2019-04-30T10:22:23.189Z,11.48
2019-04-30T10:24:52.637Z,11.60
2019-04-30T10:27:22.417Z,11.54
2019-04-30T10:29:52.212Z,11.52
2019-04-30T10:32:21.917Z,11.54
2019-04-30T10:34:51.631Z,11.53
2019-04-30T10:37:21.496Z,11.54
2019-04-30T10:39:51.259Z,11.58
2019-04-30T10:42:20.768Z,11.49
2019-04-30T10:44:50.690Z,11.45
2019-04-30T10:47:20.593Z,11.50
2019-04-30T10:49:50.037Z,11.47
2019-04-30T10:52:19.478Z,11.53
2019-04-30T10:54:49.632Z,11.55
2019-04-30T10:57:19.424Z,11.59
2019-04-30T10:59:49.138Z,11.61
2019-04-30T11:02:18.966Z,11.60
2019-04-30T11:04:48.759Z,11.68
2019-04-30T11:07:18.706Z,11.75
2019-04-30T11:09:49.349Z,11.70
2019-04-30T11:12:19.392Z,11.70
2019-04-30T11:14:48.937Z,11.70
2019-04-30T11:17:19.663Z,11.75
2019-04-30T11:19:49.654Z,11.74
2019-04-30T11:22:19.688Z,11.83
2019-04-30T11:24:58.346Z,11.94
2019-04-30T11:27:21.533Z,12.10
2019-04-30T11:29:51.811Z,12.34
2019-04-30T11:32:23.323Z,12.57
2019-04-30T11:34:53.250Z,12.62
2019-04-30T11:37:22.759Z,13.19
2019-04-30T11:39:52.206Z,13.85
2019-04-30T11:42:21.965Z,14.68
2019-04-30T11:44:51.679Z,15.22
2019-04-30T11:47:26.125Z,15.01
2019-04-30T11:49:56.015Z,14.91
2019-04-30T11:52:25.593Z,14.63
2019-04-30T11:54:55.037Z,14.39
2019-04-30T11:57:24.826Z,14.44
2019-04-30T11:59:54.643Z,14.47
2019-04-30T12:02:26.315Z,14.29
2019-04-30T12:04:55.757Z,14.08
2019-04-30T12:07:36.468Z,13.94
2019-04-30T12:10:20.915Z,13.64
2019-04-30T12:12:50.638Z,13.51
2019-04-30T12:15:20.089Z,13.45
2019-04-30T12:17:49.610Z,13.42
2019-04-30T12:20:20.065Z,13.44
2019-04-30T12:22:49.518Z,13.44
2019-04-30T12:25:19.035Z,13.46
2019-04-30T12:27:48.989Z,13.77
2019-04-30T12:30:20.786Z,13.93
2019-04-30T12:32:50.352Z,14.27
2019-04-30T12:35:20.932Z,14.28
2019-04-30T12:37:52.399Z,14.24
2019-04-30T12:40:28.928Z,14.51
2019-04-30T12:42:53.588Z,14.41
2019-04-30T12:45:23.300Z,14.33
2019-04-30T12:47:54.658Z,14.40
2019-04-30T12:50:29.240Z,14.28
2019-04-30T12:53:00.436Z,14.15
2019-04-30T12:55:48.927Z,13.92
2019-04-30T12:58:20.702Z,14.12
2019-04-30T13:00:49.531Z,13.89
2019-04-30T13:03:18.984Z,13.93
2019-04-30T13:05:50.672Z,13.88
2019-04-30T13:08:21.590Z,13.74
2019-04-30T13:10:52.213Z,13.66
2019-04-30T13:13:22.845Z,13.62
2019-04-30T13:15:52.985Z,13.81
2019-04-30T13:18:22.453Z,13.94
2019-04-30T13:20:52.345Z,14.19
2019-04-30T13:23:22.116Z,14.33
2019-04-30T13:25:51.864Z,14.26
2019-04-30T13:28:23.027Z,14.12
2019-04-30T13:30:52.776Z,14.25
2019-04-30T13:33:28.891Z,14.03
2019-04-30T13:35:58.910Z,14.04
2019-04-30T13:38:30.042Z,14.13
2019-04-30T13:41:01.440Z,14.06
2019-04-30T13:43:45.977Z,14.02
2019-04-30T13:46:15.712Z,13.89
2019-04-30T13:48:45.158Z,13.98
2019-04-30T13:51:14.937Z,14.07
2019-04-30T13:53:44.395Z,14.30
2019-04-30T13:56:14.150Z,14.48
2019-04-30T13:58:43.595Z,14.74
2019-04-30T14:01:13.044Z,14.56
2019-04-30T14:03:52.918Z,14.81
2019-04-30T14:06:24.335Z,14.90
2019-04-30T14:08:59.727Z,14.75
2019-04-30T14:11:29.530Z,14.83
2019-04-30T14:13:58.980Z,14.76
2019-04-30T14:16:28.715Z,14.73
2019-04-30T14:18:58.611Z,14.72
2019-04-30T14:21:34.535Z,14.63
2019-04-30T14:23:59.541Z,14.70
2019-04-30T14:26:29.250Z,14.84
2019-04-30T14:28:58.909Z,14.62
2019-04-30T14:31:28.846Z,14.68
2019-04-30T14:33:59.311Z,14.55
2019-04-30T14:36:29.277Z,14.64
2019-04-30T14:39:13.044Z,14.75
2019-04-30T14:41:32.502Z,14.90
2019-04-30T14:44:12.880Z,15.06
2019-04-30T14:47:01.114Z,15.34
2019-04-30T14:49:33.954Z,15.35
2019-04-30T14:52:04.688Z,15.46
2019-04-30T14:54:35.846Z,15.33
2019-04-30T14:57:07.587Z,15.40
2019-04-30T14:59:41.988Z,15.44
2019-04-30T15:02:31.310Z,15.50
2019-04-30T15:05:01.071Z,15.59
2019-04-30T15:07:30.754Z,15.67
2019-04-30T15:10:00.482Z,15.60
2019-04-30T15:12:29.924Z,15.49
2019-04-30T15:14:59.695Z,15.50
2019-04-30T15:17:29.151Z,15.59
2019-04-30T15:19:58.957Z,15.41
2019-04-30T15:22:29.137Z,15.58
2019-04-30T15:24:59.163Z,15.73
2019-04-30T15:27:29.091Z,15.84
2019-04-30T15:29:58.749Z,15.90
2019-04-30T15:32:28.728Z,15.98
2019-04-30T15:34:58.947Z,15.97
2019-04-30T15:37:28.789Z,15.96
2019-04-30T15:39:59.077Z,15.83
2019-04-30T15:42:28.704Z,15.83
2019-04-30T15:44:59.416Z,15.67
2019-04-30T15:47:29.293Z,15.43
2019-04-30T15:50:01.856Z,15.23
2019-04-30T15:52:30.165Z,15.09
2019-04-30T15:54:59.672Z,14.99
2019-04-30T15:57:29.570Z,14.96
2019-04-30T15:59:59.429Z,14.96
2019-04-30T16:02:30.740Z,15.18
2019-04-30T16:05:05.045Z,15.32
2019-04-30T16:07:36.382Z,15.41
2019-04-30T16:10:12.245Z,16.25
2019-04-30T16:12:43.589Z,18.36
2019-04-30T16:15:13.051Z,17.78
2019-04-30T16:17:49.255Z,17.11
2019-04-30T16:20:18.477Z,16.84
2019-04-30T16:22:49.351Z,16.19
2019-04-30T16:25:19.511Z,16.15
2019-04-30T16:27:49.541Z,15.81
2019-04-30T16:30:19.601Z,15.75
2019-04-30T16:32:50.735Z,15.53
2019-04-30T16:35:20.556Z,15.56
2019-04-30T16:37:50.006Z,15.57
2019-04-30T16:40:19.456Z,15.54
2019-04-30T16:42:49.094Z,15.46
2019-04-30T16:45:19.574Z,15.46
2019-04-30T16:47:49.518Z,15.38
2019-04-30T16:50:19.348Z,15.45
2019-04-30T16:52:49.817Z,15.58
2019-04-30T16:55:19.325Z,15.62
2019-04-30T16:57:49.813Z,15.67
2019-04-30T17:00:21.044Z,15.70
2019-04-30T17:02:54.887Z,15.83
2019-04-30T17:05:29.474Z,15.79
2019-04-30T17:08:03.366Z,15.72
2019-04-30T17:10:50.719Z,15.60
2019-04-30T17:13:24.952Z,15.57
2019-04-30T17:15:56.031Z,15.54
2019-04-30T17:18:25.477Z,15.59
2019-04-30T17:20:55.176Z,15.70
2019-04-30T17:23:24.640Z,15.68
2019-04-30T17:25:54.056Z,15.75
2019-04-30T17:28:23.499Z,15.63
2019-04-30T17:30:53.015Z,15.60
2019-04-30T17:33:22.719Z,15.52
2019-04-30T17:35:52.423Z,15.47
2019-04-30T17:38:21.857Z,15.51
2019-04-30T17:40:51.358Z,15.32
2019-04-30T17:43:21.245Z,15.25
2019-04-30T17:45:51.025Z,15.19
2019-04-30T17:48:20.798Z,15.25
2019-04-30T17:50:50.296Z,15.22
2019-04-30T17:53:20.125Z,15.14
2019-04-30T17:55:49.894Z,15.06
2019-04-30T17:58:20.650Z,15.00
2019-04-30T18:00:52.036Z,15.01
2019-04-30T18:03:21.474Z,14.94
2019-04-30T18:05:51.287Z,14.79
2019-04-30T18:08:21.038Z,14.73
2019-04-30T18:10:51.016Z,14.63
2019-04-30T18:13:20.455Z,14.75
2019-04-30T18:15:50.208Z,14.67
2019-04-30T18:18:21.605Z,14.59
2019-04-30T18:20:56.958Z,14.57
2019-04-30T18:23:43.841Z,14.49
2019-04-30T18:26:14.909Z,14.34
2019-04-30T18:28:44.370Z,14.10
2019-04-30T18:31:13.807Z,13.94
2019-04-30T18:33:43.258Z,13.90
2019-04-30T18:36:13.002Z,13.82
2019-04-30T18:38:42.802Z,13.70
2019-04-30T18:41:12.506Z,13.53
2019-04-30T18:43:41.959Z,13.59
2019-04-30T18:46:11.732Z,13.63
2019-04-30T18:48:41.504Z,13.52
2019-04-30T18:51:29.979Z,13.47
2019-04-30T18:53:42.538Z,13.44
2019-04-30T18:56:14.736Z,13.34
2019-04-30T18:58:43.489Z,13.25
2019-04-30T19:01:13.767Z,13.17
2019-04-30T19:03:43.476Z,13.12
2019-04-30T19:06:23.753Z,13.07
2019-04-30T19:08:55.805Z,12.94
2019-04-30T19:11:25.015Z,12.90
2019-04-30T19:13:56.465Z,12.81
2019-04-30T19:16:27.651Z,12.61
2019-04-30T19:19:09.394Z,12.53
2019-04-30T19:21:40.409Z,12.39
2019-04-30T19:24:10.151Z,12.41
2019-04-30T19:26:39.654Z,12.37
2019-04-30T19:29:09.105Z,12.29
2019-04-30T19:31:39.487Z,12.22
2019-04-30T19:34:09.796Z,12.23
2019-04-30T19:36:40.749Z,12.17
2019-04-30T19:39:12.068Z,12.06
2019-04-30T19:41:41.752Z,11.88
2019-04-30T19:44:11.196Z,11.68
2019-04-30T19:46:43.656Z,11.79
2019-04-30T19:49:13.104Z,11.63
2019-04-30T19:51:42.802Z,11.53
2019-04-30T19:54:12.317Z,11.50
2019-04-30T19:56:42.185Z,11.37
2019-04-30T19:59:11.704Z,11.38
2019-04-30T20:01:41.194Z,11.36
2019-04-30T20:04:10.634Z,11.32
2019-04-30T20:06:40.404Z,11.17
2019-04-30T20:09:09.858Z,11.04
2019-04-30T20:11:39.789Z,11.13
2019-04-30T20:14:10.753Z,11.26
2019-04-30T20:16:41.918Z,11.10
2019-04-30T20:19:11.333Z,10.94
2019-04-30T20:21:48.705Z,10.73
2019-04-30T20:24:11.957Z,10.69
2019-04-30T20:26:43.041Z,10.57
2019-04-30T20:29:12.493Z,10.53
2019-04-30T20:31:41.938Z,10.48
2019-04-30T20:34:11.706Z,10.49
2019-04-30T20:36:42.708Z,10.50
2019-04-30T20:39:15.968Z,10.40
2019-04-30T20:41:45.237Z,10.46
2019-04-30T20:44:14.780Z,10.33
2019-04-30T20:46:44.464Z,10.15
2019-04-30T20:49:13.919Z,10.16
2019-04-30T20:51:53.572Z,10.18
2019-04-30T20:54:14.790Z,10.13
2019-04-30T20:56:44.473Z,10.07
2019-04-30T20:59:13.927Z,9.83
2019-04-30T21:01:43.630Z,9.85
2019-04-30T21:04:13.084Z,9.76
2019-04-30T21:06:42.519Z,9.64
2019-04-30T21:09:12.243Z,9.54
2019-04-30T21:11:41.689Z,9.51
2019-04-30T21:14:11.131Z,9.54
2019-04-30T21:16:40.569Z,9.59
2019-04-30T21:19:10.048Z,9.63
2019-04-30T21:21:39.762Z,9.51
2019-04-30T21:24:09.471Z,9.47
2019-04-30T21:26:38.905Z,9.44
2019-04-30T21:29:13.637Z,9.44
2019-04-30T21:31:54.993Z,9.50
2019-04-30T21:34:29.226Z,9.44
2019-04-30T21:36:59.694Z,9.40
2019-04-30T21:39:29.640Z,9.33
2019-04-30T21:41:59.514Z,9.27
2019-04-30T21:44:28.984Z,9.12
2019-04-30T21:46:58.869Z,9.13
2019-04-30T21:49:28.619Z,9.16
2019-04-30T21:51:58.051Z,9.11
2019-04-30T21:54:28.355Z,9.13
2019-04-30T21:56:59.241Z,9.15
2019-04-30T21:59:30.439Z,9.14
2019-04-30T22:02:00.678Z,9.08
2019-04-30T22:04:30.104Z,9.09
2019-04-30T22:06:59.817Z,9.08
2019-04-30T22:09:29.579Z,9.04
2019-04-30T22:11:59.344Z,8.97
2019-04-30T22:14:29.042Z,8.90
2019-04-30T22:16:59.391Z,8.81
2019-04-30T22:19:28.910Z,8.77
2019-04-30T22:21:59.465Z,8.75
2019-04-30T22:24:30.536Z,8.80
2019-04-30T22:27:00.154Z,8.59
2019-04-30T22:29:39.067Z,8.60
2019-04-30T22:32:01.038Z,8.59
2019-04-30T22:34:30.812Z,8.52
2019-04-30T22:37:00.266Z,8.50
2019-04-30T22:39:31.356Z,8.41
2019-04-30T22:42:32.241Z,8.32
2019-04-30T22:45:02.939Z,8.22
2019-04-30T22:47:32.385Z,8.15
2019-04-30T22:50:01.821Z,8.16
2019-04-30T22:52:31.274Z,8.16
2019-04-30T22:55:00.713Z,8.25
2019-04-30T22:57:30.158Z,8.24
2019-04-30T23:00:00.112Z,8.14
2019-04-30T23:02:31.199Z,8.15
2019-04-30T23:05:02.554Z,8.11
2019-04-30T23:07:32.004Z,8.12
2019-04-30T23:10:01.440Z,8.08
2019-04-30T23:12:31.171Z,7.96
2019-04-30T23:15:00.623Z,7.90
2019-04-30T23:17:30.298Z,7.96
2019-04-30T23:19:59.733Z,7.83
2019-04-30T23:22:29.483Z,7.76
2019-04-30T23:24:58.927Z,7.70
2019-04-30T23:27:28.612Z,7.74
2019-04-30T23:30:03.368Z,7.73
2019-04-30T23:32:29.985Z,7.71
2019-04-30T23:34:59.775Z,7.70
2019-04-30T23:37:29.479Z,7.73
2019-04-30T23:40:25.305Z,7.76
2019-04-30T23:42:56.201Z,7.72
2019-04-30T23:45:25.946Z,7.77
2019-04-30T23:47:55.658Z,7.82
2019-04-30T23:50:25.369Z,7.85
2019-04-30T23:52:54.815Z,7.87
2019-04-30T23:55:24.254Z,7.69
2019-04-30T23:57:53.991Z,7.67
